METAR Data
IDs: Format: Raw Decoded Include TAF

Data at: 0628 UTC 28 Sep 2022

KLRD 280556Z AUTO 17004KT 10SM CLR 20/11 A3015 RMK AO2 SLP205 T02000111 10306 20200 403280200 51014